sensor_id;sensor_type;location;lat;lon;timestamp;P1;durP1;ratioP1;P2;durP2;ratioP2
17052;SDS011;8643;48.824;11.422;2022-12-22T00:02:03;34.43;;;18.80;;
17052;SDS011;8643;48.824;11.422;2022-12-22T00:05:00;38.03;;;20.23;;
17052;SDS011;8643;48.824;11.422;2022-12-22T00:07:51;45.67;;;21.90;;
17052;SDS011;8643;48.824;11.422;2022-12-22T00:10:37;33.77;;;19.57;;
17052;SDS011;8643;48.824;11.422;2022-12-22T00:13:23;39.93;;;20.43;;
17052;SDS011;8643;48.824;11.422;2022-12-22T00:16:11;50.33;;;21.50;;
17052;SDS011;8643;48.824;11.422;2022-12-22T00:18:57;70.53;;;20.50;;
17052;SDS011;8643;48.824;11.422;2022-12-22T00:21:44;195.43;;;25.70;;
17052;SDS011;8643;48.824;11.422;2022-12-22T00:24:30;33.33;;;18.50;;
17052;SDS011;8643;48.824;11.422;2022-12-22T00:27:18;43.67;;;19.43;;
17052;SDS011;8643;48.824;11.422;2022-12-22T00:30:12;55.30;;;20.27;;
17052;SDS011;8643;48.824;11.422;2022-12-22T00:33:02;80.57;;;20.37;;
17052;SDS011;8643;48.824;11.422;2022-12-22T00:35:50;83.73;;;21.10;;
17052;SDS011;8643;48.824;11.422;2022-12-22T00:38:36;97.97;;;21.47;;
17052;SDS011;8643;48.824;11.422;2022-12-22T00:41:22;142.87;;;23.47;;
17052;SDS011;8643;48.824;11.422;2022-12-22T00:44:08;104.07;;;23.27;;
17052;SDS011;8643;48.824;11.422;2022-12-22T00:46:53;67.70;;;22.57;;
17052;SDS011;8643;48.824;11.422;2022-12-22T00:49:42;33.27;;;18.90;;
17052;SDS011;8643;48.824;11.422;2022-12-22T00:52:32;43.77;;;20.23;;
17052;SDS011;8643;48.824;11.422;2022-12-22T00:55:21;87.13;;;22.60;;
17052;SDS011;8643;48.824;11.422;2022-12-22T00:58:15;77.57;;;22.27;;
17052;SDS011;8643;48.824;11.422;2022-12-22T01:01:04;74.90;;;20.67;;
17052;SDS011;8643;48.824;11.422;2022-12-22T01:03:50;70.97;;;20.97;;
17052;SDS011;8643;48.824;11.422;2022-12-22T01:06:38;35.27;;;18.03;;
17052;SDS011;8643;48.824;11.422;2022-12-22T01:09:24;67.03;;;20.33;;
17052;SDS011;8643;48.824;11.422;2022-12-22T01:12:12;62.77;;;20.60;;
17052;SDS011;8643;48.824;11.422;2022-12-22T01:15:05;29.27;;;16.27;;
17052;SDS011;8643;48.824;11.422;2022-12-22T01:17:56;63.80;;;20.63;;
17052;SDS011;8643;48.824;11.422;2022-12-22T01:20:43;127.50;;;24.63;;
17052;SDS011;8643;48.824;11.422;2022-12-22T01:23:30;40.90;;;20.53;;
17052;SDS011;8643;48.824;11.422;2022-12-22T01:26:17;31.53;;;17.80;;
17052;SDS011;8643;48.824;11.422;2022-12-22T01:29:02;30.07;;;17.53;;
17052;SDS011;8643;48.824;11.422;2022-12-22T01:31:48;82.50;;;23.50;;
17052;SDS011;8643;48.824;11.422;2022-12-22T01:34:35;114.60;;;23.10;;
17052;SDS011;8643;48.824;11.422;2022-12-22T01:37:22;37.70;;;19.13;;
17052;SDS011;8643;48.824;11.422;2022-12-22T01:40:11;38.90;;;20.47;;
17052;SDS011;8643;48.824;11.422;2022-12-22T01:43:07;33.23;;;18.00;;
17052;SDS011;8643;48.824;11.422;2022-12-22T01:46:21;69.00;;;20.93;;
17052;SDS011;8643;48.824;11.422;2022-12-22T01:49:10;48.03;;;21.80;;
17052;SDS011;8643;48.824;11.422;2022-12-22T01:52:03;49.03;;;22.47;;
17052;SDS011;8643;48.824;11.422;2022-12-22T01:54:52;41.20;;;20.47;;
17052;SDS011;8643;48.824;11.422;2022-12-22T01:57:42;50.43;;;20.20;;
17052;SDS011;8643;48.824;11.422;2022-12-22T02:00:28;40.97;;;20.07;;
17052;SDS011;8643;48.824;11.422;2022-12-22T02:03:15;39.47;;;20.13;;
17052;SDS011;8643;48.824;11.422;2022-12-22T02:06:14;44.97;;;22.30;;
17052;SDS011;8643;48.824;11.422;2022-12-22T02:09:17;41.20;;;21.10;;
17052;SDS011;8643;48.824;11.422;2022-12-22T02:12:16;43.50;;;21.70;;
17052;SDS011;8643;48.824;11.422;2022-12-22T02:15:19;35.20;;;18.57;;
17052;SDS011;8643;48.824;11.422;2022-12-22T02:18:14;54.40;;;22.37;;
17052;SDS011;8643;48.824;11.422;2022-12-22T02:21:06;67.10;;;23.40;;
17052;SDS011;8643;48.824;11.422;2022-12-22T02:24:03;42.43;;;21.40;;
17052;SDS011;8643;48.824;11.422;2022-12-22T02:27:04;43.37;;;20.33;;
17052;SDS011;8643;48.824;11.422;2022-12-22T02:29:54;47.33;;;22.00;;
17052;SDS011;8643;48.824;11.422;2022-12-22T02:32:45;39.50;;;19.60;;
17052;SDS011;8643;48.824;11.422;2022-12-22T02:35:37;45.03;;;21.83;;
17052;SDS011;8643;48.824;11.422;2022-12-22T02:38:37;42.83;;;20.40;;
17052;SDS011;8643;48.824;11.422;2022-12-22T02:41:32;48.43;;;22.80;;
17052;SDS011;8643;48.824;11.422;2022-12-22T02:44:43;45.27;;;21.80;;
17052;SDS011;8643;48.824;11.422;2022-12-22T02:47:41;48.67;;;21.87;;
17052;SDS011;8643;48.824;11.422;2022-12-22T02:50:36;41.00;;;20.40;;
17052;SDS011;8643;48.824;11.422;2022-12-22T02:53:26;49.23;;;21.73;;
17052;SDS011;8643;48.824;11.422;2022-12-22T02:56:15;43.93;;;20.90;;
17052;SDS011;8643;48.824;11.422;2022-12-22T02:59:02;32.37;;;17.27;;
17052;SDS011;8643;48.824;11.422;2022-12-22T03:01:49;36.80;;;18.87;;
17052;SDS011;8643;48.824;11.422;2022-12-22T03:04:35;42.67;;;21.57;;
17052;SDS011;8643;48.824;11.422;2022-12-22T03:07:23;44.67;;;20.90;;
17052;SDS011;8643;48.824;11.422;2022-12-22T03:10:09;37.57;;;19.67;;
17052;SDS011;8643;48.824;11.422;2022-12-22T03:12:57;40.87;;;20.23;;
17052;SDS011;8643;48.824;11.422;2022-12-22T03:15:44;38.00;;;19.63;;
17052;SDS011;8643;48.824;11.422;2022-12-22T03:18:32;35.13;;;17.93;;
17052;SDS011;8643;48.824;11.422;2022-12-22T03:21:19;36.97;;;18.93;;
17052;SDS011;8643;48.824;11.422;2022-12-22T03:24:05;36.60;;;18.90;;
17052;SDS011;8643;48.824;11.422;2022-12-22T03:26:53;39.47;;;19.47;;
17052;SDS011;8643;48.824;11.422;2022-12-22T03:29:22;35.37;;;19.37;;
17052;SDS011;8643;48.824;11.422;2022-12-22T03:31:54;37.23;;;19.63;;
17052;SDS011;8643;48.824;11.422;2022-12-22T03:34:25;38.63;;;20.07;;
17052;SDS011;8643;48.824;11.422;2022-12-22T03:36:55;38.20;;;18.73;;
17052;SDS011;8643;48.824;11.422;2022-12-22T03:39:24;36.57;;;18.40;;
17052;SDS011;8643;48.824;11.422;2022-12-22T03:41:57;33.13;;;17.57;;
17052;SDS011;8643;48.824;11.422;2022-12-22T03:44:44;38.20;;;19.37;;
17052;SDS011;8643;48.824;11.422;2022-12-22T03:47:30;32.83;;;17.40;;
17052;SDS011;8643;48.824;11.422;2022-12-22T03:50:02;35.47;;;19.37;;
17052;SDS011;8643;48.824;11.422;2022-12-22T03:52:32;39.53;;;18.83;;
17052;SDS011;8643;48.824;11.422;2022-12-22T03:55:02;36.27;;;19.73;;
17052;SDS011;8643;48.824;11.422;2022-12-22T03:57:37;36.03;;;17.83;;
17052;SDS011;8643;48.824;11.422;2022-12-22T04:00:16;35.60;;;18.40;;
17052;SDS011;8643;48.824;11.422;2022-12-22T04:02:47;39.60;;;19.20;;
17052;SDS011;8643;48.824;11.422;2022-12-22T04:05:18;39.00;;;19.10;;
17052;SDS011;8643;48.824;11.422;2022-12-22T04:07:51;36.60;;;18.80;;
17052;SDS011;8643;48.824;11.422;2022-12-22T04:10:20;32.30;;;17.57;;
17052;SDS011;8643;48.824;11.422;2022-12-22T04:13:07;33.70;;;18.07;;
17052;SDS011;8643;48.824;11.422;2022-12-22T04:15:37;39.10;;;19.40;;
17052;SDS011;8643;48.824;11.422;2022-12-22T04:18:07;34.00;;;18.27;;
17052;SDS011;8643;48.824;11.422;2022-12-22T04:20:38;32.97;;;18.17;;
17052;SDS011;8643;48.824;11.422;2022-12-22T04:23:08;32.27;;;18.30;;
17052;SDS011;8643;48.824;11.422;2022-12-22T04:25:37;40.60;;;19.63;;
17052;SDS011;8643;48.824;11.422;2022-12-22T04:28:07;30.40;;;16.77;;
17052;SDS011;8643;48.824;11.422;2022-12-22T04:30:42;30.37;;;16.93;;
17052;SDS011;8643;48.824;11.422;2022-12-22T04:33:16;30.43;;;16.07;;
17052;SDS011;8643;48.824;11.422;2022-12-22T04:35:55;29.80;;;15.43;;
17052;SDS011;8643;48.824;11.422;2022-12-22T04:38:25;26.27;;;14.17;;
17052;SDS011;8643;48.824;11.422;2022-12-22T04:40:57;26.20;;;13.73;;
17052;SDS011;8643;48.824;11.422;2022-12-22T04:43:34;27.10;;;14.67;;
17052;SDS011;8643;48.824;11.422;2022-12-22T04:46:07;25.83;;;13.97;;
17052;SDS011;8643;48.824;11.422;2022-12-22T04:48:39;28.67;;;15.37;;
17052;SDS011;8643;48.824;11.422;2022-12-22T04:51:14;23.70;;;12.93;;
17052;SDS011;8643;48.824;11.422;2022-12-22T04:53:43;27.57;;;14.43;;
17052;SDS011;8643;48.824;11.422;2022-12-22T04:56:12;30.63;;;15.60;;
17052;SDS011;8643;48.824;11.422;2022-12-22T04:58:41;26.37;;;13.60;;
17052;SDS011;8643;48.824;11.422;2022-12-22T05:01:10;23.23;;;13.43;;
17052;SDS011;8643;48.824;11.422;2022-12-22T05:03:42;27.60;;;14.27;;
17052;SDS011;8643;48.824;11.422;2022-12-22T05:06:11;24.00;;;12.57;;
17052;SDS011;8643;48.824;11.422;2022-12-22T05:08:41;28.93;;;14.40;;
17052;SDS011;8643;48.824;11.422;2022-12-22T05:11:10;21.63;;;12.07;;
17052;SDS011;8643;48.824;11.422;2022-12-22T05:13:40;22.90;;;12.50;;
17052;SDS011;8643;48.824;11.422;2022-12-22T05:16:10;22.57;;;11.97;;
17052;SDS011;8643;48.824;11.422;2022-12-22T05:18:42;24.77;;;13.40;;
17052;SDS011;8643;48.824;11.422;2022-12-22T05:21:17;22.77;;;12.33;;
17052;SDS011;8643;48.824;11.422;2022-12-22T05:23:50;21.03;;;11.90;;
17052;SDS011;8643;48.824;11.422;2022-12-22T05:26:22;22.07;;;12.13;;
17052;SDS011;8643;48.824;11.422;2022-12-22T05:28:50;21.60;;;11.87;;
17052;SDS011;8643;48.824;11.422;2022-12-22T05:31:20;27.03;;;13.20;;
17052;SDS011;8643;48.824;11.422;2022-12-22T05:33:51;23.97;;;12.70;;
17052;SDS011;8643;48.824;11.422;2022-12-22T05:36:21;30.03;;;13.57;;
17052;SDS011;8643;48.824;11.422;2022-12-22T05:38:49;25.20;;;12.90;;
17052;SDS011;8643;48.824;11.422;2022-12-22T05:41:18;24.53;;;12.20;;
17052;SDS011;8643;48.824;11.422;2022-12-22T05:43:47;25.10;;;12.40;;
17052;SDS011;8643;48.824;11.422;2022-12-22T05:46:16;28.97;;;14.80;;
17052;SDS011;8643;48.824;11.422;2022-12-22T05:48:45;33.30;;;13.93;;
17052;SDS011;8643;48.824;11.422;2022-12-22T05:51:13;29.70;;;14.73;;
17052;SDS011;8643;48.824;11.422;2022-12-22T05:53:43;32.60;;;15.20;;
17052;SDS011;8643;48.824;11.422;2022-12-22T05:56:11;25.83;;;13.70;;
17052;SDS011;8643;48.824;11.422;2022-12-22T05:58:40;28.73;;;14.40;;
17052;SDS011;8643;48.824;11.422;2022-12-22T06:01:08;27.57;;;13.60;;
17052;SDS011;8643;48.824;11.422;2022-12-22T06:03:37;27.30;;;13.20;;
17052;SDS011;8643;48.824;11.422;2022-12-22T06:06:07;28.83;;;14.23;;
17052;SDS011;8643;48.824;11.422;2022-12-22T06:08:36;26.27;;;12.93;;
17052;SDS011;8643;48.824;11.422;2022-12-22T06:11:06;30.73;;;14.83;;
17052;SDS011;8643;48.824;11.422;2022-12-22T06:13:35;24.23;;;13.07;;
17052;SDS011;8643;48.824;11.422;2022-12-22T06:16:05;27.20;;;12.67;;
17052;SDS011;8643;48.824;11.422;2022-12-22T06:18:35;25.30;;;12.00;;
17052;SDS011;8643;48.824;11.422;2022-12-22T06:21:03;45.77;;;15.27;;
17052;SDS011;8643;48.824;11.422;2022-12-22T06:23:32;27.00;;;13.33;;
17052;SDS011;8643;48.824;11.422;2022-12-22T06:26:01;30.10;;;13.57;;
17052;SDS011;8643;48.824;11.422;2022-12-22T06:28:31;27.03;;;12.90;;
17052;SDS011;8643;48.824;11.422;2022-12-22T06:30:59;29.57;;;14.10;;
17052;SDS011;8643;48.824;11.422;2022-12-22T06:33:28;28.87;;;13.77;;
17052;SDS011;8643;48.824;11.422;2022-12-22T06:35:57;27.73;;;13.20;;
17052;SDS011;8643;48.824;11.422;2022-12-22T06:38:30;26.23;;;13.07;;
17052;SDS011;8643;48.824;11.422;2022-12-22T06:40:58;27.67;;;13.80;;
17052;SDS011;8643;48.824;11.422;2022-12-22T06:43:28;25.93;;;13.20;;
17052;SDS011;8643;48.824;11.422;2022-12-22T06:45:57;31.27;;;15.13;;
17052;SDS011;8643;48.824;11.422;2022-12-22T06:48:27;24.07;;;12.77;;
17052;SDS011;8643;48.824;11.422;2022-12-22T06:50:56;29.37;;;14.17;;
17052;SDS011;8643;48.824;11.422;2022-12-22T06:53:25;27.43;;;14.00;;
17052;SDS011;8643;48.824;11.422;2022-12-22T06:55:54;28.03;;;14.50;;
17052;SDS011;8643;48.824;11.422;2022-12-22T06:58:23;27.00;;;14.13;;
17052;SDS011;8643;48.824;11.422;2022-12-22T07:00:54;20.47;;;11.60;;
17052;SDS011;8643;48.824;11.422;2022-12-22T07:03:24;27.60;;;14.10;;
17052;SDS011;8643;48.824;11.422;2022-12-22T07:05:53;21.00;;;12.20;;
17052;SDS011;8643;48.824;11.422;2022-12-22T07:08:22;28.07;;;14.03;;
17052;SDS011;8643;48.824;11.422;2022-12-22T07:10:52;26.57;;;12.93;;
17052;SDS011;8643;48.824;11.422;2022-12-22T07:13:27;24.67;;;12.50;;
17052;SDS011;8643;48.824;11.422;2022-12-22T07:16:00;25.63;;;13.30;;
17052;SDS011;8643;48.824;11.422;2022-12-22T07:18:32;32.33;;;14.53;;
17052;SDS011;8643;48.824;11.422;2022-12-22T07:21:03;23.83;;;13.43;;
17052;SDS011;8643;48.824;11.422;2022-12-22T07:23:35;24.53;;;12.93;;
17052;SDS011;8643;48.824;11.422;2022-12-22T07:26:05;29.20;;;14.73;;
17052;SDS011;8643;48.824;11.422;2022-12-22T07:28:35;26.67;;;13.07;;
17052;SDS011;8643;48.824;11.422;2022-12-22T07:31:08;32.37;;;15.17;;
17052;SDS011;8643;48.824;11.422;2022-12-22T07:33:38;25.67;;;14.10;;
17052;SDS011;8643;48.824;11.422;2022-12-22T07:36:09;26.37;;;13.60;;
17052;SDS011;8643;48.824;11.422;2022-12-22T07:38:40;22.20;;;13.00;;
17052;SDS011;8643;48.824;11.422;2022-12-22T07:41:10;27.23;;;14.03;;
17052;SDS011;8643;48.824;11.422;2022-12-22T07:43:59;22.33;;;12.67;;
17052;SDS011;8643;48.824;11.422;2022-12-22T07:46:30;28.03;;;13.60;;
17052;SDS011;8643;48.824;11.422;2022-12-22T07:49:04;23.90;;;12.00;;
17052;SDS011;8643;48.824;11.422;2022-12-22T07:51:54;22.20;;;11.90;;
17052;SDS011;8643;48.824;11.422;2022-12-22T07:54:27;23.87;;;11.60;;
17052;SDS011;8643;48.824;11.422;2022-12-22T07:56:55;20.07;;;11.20;;
17052;SDS011;8643;48.824;11.422;2022-12-22T07:59:25;21.30;;;11.20;;
17052;SDS011;8643;48.824;11.422;2022-12-22T08:01:55;20.17;;;10.80;;
17052;SDS011;8643;48.824;11.422;2022-12-22T08:04:24;19.90;;;11.30;;
17052;SDS011;8643;48.824;11.422;2022-12-22T08:06:53;19.77;;;10.80;;
17052;SDS011;8643;48.824;11.422;2022-12-22T08:09:23;19.93;;;11.40;;
17052;SDS011;8643;48.824;11.422;2022-12-22T08:11:52;22.43;;;12.60;;
17052;SDS011;8643;48.824;11.422;2022-12-22T08:14:21;22.23;;;12.00;;
17052;SDS011;8643;48.824;11.422;2022-12-22T08:16:49;26.93;;;13.83;;
17052;SDS011;8643;48.824;11.422;2022-12-22T08:19:19;26.60;;;13.80;;
17052;SDS011;8643;48.824;11.422;2022-12-22T08:21:47;28.87;;;14.73;;
17052;SDS011;8643;48.824;11.422;2022-12-22T08:24:18;31.27;;;15.77;;
17052;SDS011;8643;48.824;11.422;2022-12-22T08:26:48;24.10;;;14.40;;
17052;SDS011;8643;48.824;11.422;2022-12-22T08:29:25;25.07;;;14.47;;
17052;SDS011;8643;48.824;11.422;2022-12-22T08:34:34;29.60;;;14.70;;
17052;SDS011;8643;48.824;11.422;2022-12-22T08:37:04;24.70;;;13.40;;
17052;SDS011;8643;48.824;11.422;2022-12-22T08:39:40;23.83;;;12.70;;
17052;SDS011;8643;48.824;11.422;2022-12-22T08:42:13;24.80;;;11.70;;
17052;SDS011;8643;48.824;11.422;2022-12-22T08:44:45;26.30;;;13.43;;
17052;SDS011;8643;48.824;11.422;2022-12-22T08:47:18;26.07;;;13.20;;
17052;SDS011;8643;48.824;11.422;2022-12-22T08:49:49;23.33;;;12.30;;
17052;SDS011;8643;48.824;11.422;2022-12-22T08:52:17;21.73;;;11.57;;
17052;SDS011;8643;48.824;11.422;2022-12-22T08:54:46;20.80;;;11.63;;
17052;SDS011;8643;48.824;11.422;2022-12-22T08:57:15;27.60;;;13.33;;
17052;SDS011;8643;48.824;11.422;2022-12-22T08:59:43;18.97;;;11.43;;
17052;SDS011;8643;48.824;11.422;2022-12-22T09:02:13;22.37;;;10.17;;
17052;SDS011;8643;48.824;11.422;2022-12-22T09:04:43;22.27;;;11.90;;
17052;SDS011;8643;48.824;11.422;2022-12-22T09:07:13;25.77;;;13.20;;
17052;SDS011;8643;48.824;11.422;2022-12-22T09:09:42;22.53;;;13.27;;
17052;SDS011;8643;48.824;11.422;2022-12-22T09:12:12;23.60;;;13.93;;
17052;SDS011;8643;48.824;11.422;2022-12-22T09:14:41;24.97;;;13.20;;
17052;SDS011;8643;48.824;11.422;2022-12-22T09:17:10;18.97;;;11.40;;
17052;SDS011;8643;48.824;11.422;2022-12-22T09:19:39;23.63;;;11.43;;
17052;SDS011;8643;48.824;11.422;2022-12-22T09:22:07;18.73;;;10.70;;
17052;SDS011;8643;48.824;11.422;2022-12-22T09:24:38;15.80;;;8.43;;
17052;SDS011;8643;48.824;11.422;2022-12-22T09:27:06;14.93;;;7.50;;
17052;SDS011;8643;48.824;11.422;2022-12-22T09:29:35;12.57;;;7.07;;
17052;SDS011;8643;48.824;11.422;2022-12-22T09:32:05;8.30;;;4.83;;
17052;SDS011;8643;48.824;11.422;2022-12-22T09:34:35;8.73;;;4.83;;
17052;SDS011;8643;48.824;11.422;2022-12-22T09:37:04;10.30;;;3.93;;
17052;SDS011;8643;48.824;11.422;2022-12-22T09:39:33;9.83;;;3.20;;
17052;SDS011;8643;48.824;11.422;2022-12-22T09:42:04;13.70;;;3.90;;
17052;SDS011;8643;48.824;11.422;2022-12-22T09:44:42;11.33;;;2.80;;
17052;SDS011;8643;48.824;11.422;2022-12-22T09:47:16;6.10;;;1.60;;
17052;SDS011;8643;48.824;11.422;2022-12-22T09:49:51;9.67;;;1.80;;
17052;SDS011;8643;48.824;11.422;2022-12-22T09:52:27;10.70;;;1.50;;
17052;SDS011;8643;48.824;11.422;2022-12-22T09:55:12;6.10;;;1.37;;
17052;SDS011;8643;48.824;11.422;2022-12-22T09:57:49;7.47;;;1.53;;
17052;SDS011;8643;48.824;11.422;2022-12-22T10:00:21;7.17;;;1.40;;
17052;SDS011;8643;48.824;11.422;2022-12-22T10:02:54;7.00;;;1.40;;
17052;SDS011;8643;48.824;11.422;2022-12-22T10:05:40;5.20;;;1.53;;
17052;SDS011;8643;48.824;11.422;2022-12-22T10:08:20;6.60;;;1.67;;
17052;SDS011;8643;48.824;11.422;2022-12-22T10:10:56;4.63;;;1.40;;
17052;SDS011;8643;48.824;11.422;2022-12-22T10:13:26;6.37;;;1.80;;
17052;SDS011;8643;48.824;11.422;2022-12-22T10:15:55;7.20;;;1.70;;
17052;SDS011;8643;48.824;11.422;2022-12-22T10:18:25;5.93;;;1.70;;
17052;SDS011;8643;48.824;11.422;2022-12-22T10:23:49;5.83;;;1.50;;
17052;SDS011;8643;48.824;11.422;2022-12-22T10:26:19;6.00;;;1.87;;
17052;SDS011;8643;48.824;11.422;2022-12-22T10:28:58;5.07;;;1.23;;
17052;SDS011;8643;48.824;11.422;2022-12-22T10:31:34;3.30;;;1.30;;
17052;SDS011;8643;48.824;11.422;2022-12-22T10:34:09;10.10;;;1.60;;
17052;SDS011;8643;48.824;11.422;2022-12-22T10:36:41;7.67;;;1.50;;
17052;SDS011;8643;48.824;11.422;2022-12-22T10:39:18;8.33;;;1.70;;
17052;SDS011;8643;48.824;11.422;2022-12-22T10:41:50;4.13;;;1.20;;
17052;SDS011;8643;48.824;11.422;2022-12-22T10:44:24;3.73;;;1.20;;
17052;SDS011;8643;48.824;11.422;2022-12-22T10:46:56;4.87;;;1.20;;
17052;SDS011;8643;48.824;11.422;2022-12-22T10:49:27;2.93;;;1.20;;
17052;SDS011;8643;48.824;11.422;2022-12-22T10:52:08;4.27;;;1.60;;
17052;SDS011;8643;48.824;11.422;2022-12-22T10:54:43;3.50;;;1.20;;
17052;SDS011;8643;48.824;11.422;2022-12-22T10:57:21;6.30;;;1.57;;
17052;SDS011;8643;48.824;11.422;2022-12-22T10:59:58;9.53;;;1.90;;
17052;SDS011;8643;48.824;11.422;2022-12-22T11:02:29;4.17;;;1.60;;
17052;SDS011;8643;48.824;11.422;2022-12-22T11:05:02;7.90;;;1.60;;
17052;SDS011;8643;48.824;11.422;2022-12-22T11:07:35;5.03;;;1.30;;
17052;SDS011;8643;48.824;11.422;2022-12-22T11:10:10;5.30;;;1.10;;
17052;SDS011;8643;48.824;11.422;2022-12-22T11:13:01;5.17;;;1.37;;
17052;SDS011;8643;48.824;11.422;2022-12-22T11:15:51;6.17;;;1.60;;
17052;SDS011;8643;48.824;11.422;2022-12-22T11:18:34;4.93;;;1.80;;
17052;SDS011;8643;48.824;11.422;2022-12-22T11:21:21;9.43;;;2.30;;
17052;SDS011;8643;48.824;11.422;2022-12-22T11:24:06;12.50;;;2.27;;
17052;SDS011;8643;48.824;11.422;2022-12-22T11:26:58;5.63;;;1.50;;
17052;SDS011;8643;48.824;11.422;2022-12-22T11:29:49;6.10;;;1.37;;
17052;SDS011;8643;48.824;11.422;2022-12-22T11:32:40;7.37;;;1.70;;
17052;SDS011;8643;48.824;11.422;2022-12-22T11:35:48;7.80;;;1.70;;
17052;SDS011;8643;48.824;11.422;2022-12-22T11:38:29;2.27;;;1.17;;
17052;SDS011;8643;48.824;11.422;2022-12-22T11:41:17;6.13;;;1.40;;
17052;SDS011;8643;48.824;11.422;2022-12-22T11:44:14;10.80;;;2.23;;
17052;SDS011;8643;48.824;11.422;2022-12-22T11:47:06;8.20;;;1.40;;
17052;SDS011;8643;48.824;11.422;2022-12-22T11:49:51;6.80;;;1.90;;
17052;SDS011;8643;48.824;11.422;2022-12-22T11:53:08;8.43;;;1.60;;
17052;SDS011;8643;48.824;11.422;2022-12-22T11:56:02;5.53;;;1.80;;
17052;SDS011;8643;48.824;11.422;2022-12-22T12:01:57;7.70;;;1.97;;
17052;SDS011;8643;48.824;11.422;2022-12-22T12:08:25;5.00;;;2.00;;
17052;SDS011;8643;48.824;11.422;2022-12-22T12:11:09;5.13;;;2.13;;
17052;SDS011;8643;48.824;11.422;2022-12-22T12:13:51;10.87;;;2.03;;
17052;SDS011;8643;48.824;11.422;2022-12-22T12:16:32;3.87;;;1.33;;
17052;SDS011;8643;48.824;11.422;2022-12-22T12:19:25;5.63;;;1.70;;
17052;SDS011;8643;48.824;11.422;2022-12-22T12:22:17;6.60;;;1.67;;
17052;SDS011;8643;48.824;11.422;2022-12-22T12:25:08;8.27;;;1.70;;
17052;SDS011;8643;48.824;11.422;2022-12-22T12:27:59;7.57;;;1.67;;
17052;SDS011;8643;48.824;11.422;2022-12-22T12:30:44;5.30;;;1.70;;
17052;SDS011;8643;48.824;11.422;2022-12-22T12:33:21;9.53;;;2.00;;
17052;SDS011;8643;48.824;11.422;2022-12-22T12:36:05;6.87;;;2.00;;
17052;SDS011;8643;48.824;11.422;2022-12-22T12:38:47;4.80;;;1.50;;
17052;SDS011;8643;48.824;11.422;2022-12-22T12:41:37;7.87;;;2.87;;
17052;SDS011;8643;48.824;11.422;2022-12-22T12:44:15;4.67;;;1.80;;
17052;SDS011;8643;48.824;11.422;2022-12-22T12:46:55;5.67;;;1.93;;
17052;SDS011;8643;48.824;11.422;2022-12-22T12:49:52;4.53;;;1.80;;
17052;SDS011;8643;48.824;11.422;2022-12-22T12:55:52;7.40;;;1.83;;
17052;SDS011;8643;48.824;11.422;2022-12-22T12:58:46;8.57;;;2.30;;
17052;SDS011;8643;48.824;11.422;2022-12-22T13:08:10;15.27;;;2.03;;
17052;SDS011;8643;48.824;11.422;2022-12-22T13:10:47;9.07;;;2.10;;
17052;SDS011;8643;48.824;11.422;2022-12-22T13:14:09;8.30;;;1.93;;
17052;SDS011;8643;48.824;11.422;2022-12-22T13:16:37;6.80;;;2.30;;
17052;SDS011;8643;48.824;11.422;2022-12-22T13:19:15;8.03;;;2.47;;
17052;SDS011;8643;48.824;11.422;2022-12-22T13:21:52;10.07;;;2.50;;
17052;SDS011;8643;48.824;11.422;2022-12-22T13:24:25;7.87;;;1.70;;
17052;SDS011;8643;48.824;11.422;2022-12-22T13:27:00;7.77;;;2.20;;
17052;SDS011;8643;48.824;11.422;2022-12-22T13:29:42;8.33;;;2.13;;
17052;SDS011;8643;48.824;11.422;2022-12-22T13:32:21;13.47;;;2.17;;
17052;SDS011;8643;48.824;11.422;2022-12-22T13:35:00;8.17;;;2.33;;
17052;SDS011;8643;48.824;11.422;2022-12-22T13:37:58;5.60;;;1.77;;
17052;SDS011;8643;48.824;11.422;2022-12-22T13:40:27;10.30;;;2.20;;
17052;SDS011;8643;48.824;11.422;2022-12-22T13:42:59;6.50;;;2.23;;
17052;SDS011;8643;48.824;11.422;2022-12-22T13:45:34;7.03;;;2.33;;
17052;SDS011;8643;48.824;11.422;2022-12-22T13:48:07;12.67;;;2.10;;
17052;SDS011;8643;48.824;11.422;2022-12-22T13:50:43;12.80;;;2.40;;
17052;SDS011;8643;48.824;11.422;2022-12-22T13:53:17;7.50;;;2.50;;
17052;SDS011;8643;48.824;11.422;2022-12-22T13:56:16;13.73;;;3.07;;
17052;SDS011;8643;48.824;11.422;2022-12-22T13:58:50;8.33;;;2.60;;
17052;SDS011;8643;48.824;11.422;2022-12-22T14:01:25;13.50;;;3.40;;
17052;SDS011;8643;48.824;11.422;2022-12-22T14:03:57;13.67;;;3.07;;
17052;SDS011;8643;48.824;11.422;2022-12-22T14:06:30;8.60;;;2.90;;
17052;SDS011;8643;48.824;11.422;2022-12-22T14:09:12;7.73;;;2.50;;
17052;SDS011;8643;48.824;11.422;2022-12-22T14:11:44;8.50;;;2.77;;
17052;SDS011;8643;48.824;11.422;2022-12-22T14:14:20;10.63;;;2.90;;
17052;SDS011;8643;48.824;11.422;2022-12-22T14:16:55;15.53;;;3.27;;
17052;SDS011;8643;48.824;11.422;2022-12-22T14:19:28;11.23;;;3.73;;
17052;SDS011;8643;48.824;11.422;2022-12-22T14:22:01;12.10;;;3.30;;
17052;SDS011;8643;48.824;11.422;2022-12-22T14:24:34;13.33;;;3.00;;
17052;SDS011;8643;48.824;11.422;2022-12-22T14:27:11;12.43;;;2.53;;
17052;SDS011;8643;48.824;11.422;2022-12-22T14:29:46;13.33;;;2.97;;
17052;SDS011;8643;48.824;11.422;2022-12-22T14:35:22;17.27;;;4.17;;
17052;SDS011;8643;48.824;11.422;2022-12-22T14:40:50;8.90;;;2.60;;
17052;SDS011;8643;48.824;11.422;2022-12-22T14:43:24;15.03;;;3.17;;
17052;SDS011;8643;48.824;11.422;2022-12-22T14:46:00;11.60;;;2.80;;
17052;SDS011;8643;48.824;11.422;2022-12-22T14:48:35;11.93;;;2.40;;
17052;SDS011;8643;48.824;11.422;2022-12-22T14:51:14;8.23;;;2.07;;
17052;SDS011;8643;48.824;11.422;2022-12-22T14:53:45;12.73;;;2.20;;
17052;SDS011;8643;48.824;11.422;2022-12-22T14:56:17;8.40;;;2.37;;
17052;SDS011;8643;48.824;11.422;2022-12-22T14:58:48;9.53;;;2.33;;
17052;SDS011;8643;48.824;11.422;2022-12-22T15:01:18;15.13;;;3.23;;
17052;SDS011;8643;48.824;11.422;2022-12-22T15:03:59;14.77;;;3.30;;
17052;SDS011;8643;48.824;11.422;2022-12-22T15:06:34;11.40;;;2.53;;
17052;SDS011;8643;48.824;11.422;2022-12-22T15:09:25;11.00;;;3.07;;
17052;SDS011;8643;48.824;11.422;2022-12-22T15:12:15;12.13;;;3.27;;
17052;SDS011;8643;48.824;11.422;2022-12-22T15:14:45;14.27;;;3.63;;
17052;SDS011;8643;48.824;11.422;2022-12-22T15:17:18;13.33;;;3.70;;
17052;SDS011;8643;48.824;11.422;2022-12-22T15:19:54;18.10;;;4.10;;
17052;SDS011;8643;48.824;11.422;2022-12-22T15:22:25;11.27;;;2.80;;
17052;SDS011;8643;48.824;11.422;2022-12-22T15:24:54;14.03;;;2.67;;
17052;SDS011;8643;48.824;11.422;2022-12-22T15:27:23;13.00;;;2.67;;
17052;SDS011;8643;48.824;11.422;2022-12-22T15:29:52;16.07;;;3.03;;
17052;SDS011;8643;48.824;11.422;2022-12-22T15:32:21;10.87;;;3.33;;
17052;SDS011;8643;48.824;11.422;2022-12-22T15:34:52;11.83;;;2.50;;
17052;SDS011;8643;48.824;11.422;2022-12-22T15:37:22;10.23;;;2.63;;
17052;SDS011;8643;48.824;11.422;2022-12-22T15:39:51;12.77;;;3.70;;
17052;SDS011;8643;48.824;11.422;2022-12-22T15:42:20;11.83;;;4.20;;
17052;SDS011;8643;48.824;11.422;2022-12-22T15:44:51;17.50;;;6.17;;
17052;SDS011;8643;48.824;11.422;2022-12-22T15:47:19;17.83;;;4.30;;
17052;SDS011;8643;48.824;11.422;2022-12-22T15:49:48;10.23;;;3.53;;
17052;SDS011;8643;48.824;11.422;2022-12-22T15:52:18;13.90;;;4.90;;
17052;SDS011;8643;48.824;11.422;2022-12-22T15:54:47;12.43;;;3.07;;
17052;SDS011;8643;48.824;11.422;2022-12-22T15:57:16;12.90;;;3.03;;
17052;SDS011;8643;48.824;11.422;2022-12-22T15:59:44;13.00;;;3.47;;